sensor_id;sensor_type;location;lat;lon;timestamp;P1;durP1;ratioP1;P2;durP2;ratioP2
22421;SDS011;11378;51.642;7.668;2023-02-15T00:01:12;7.70;;;4.20;;
22421;SDS011;11378;51.642;7.668;2023-02-15T00:03:39;5.88;;;4.53;;
22421;SDS011;11378;51.642;7.668;2023-02-15T00:06:05;7.53;;;4.57;;
22421;SDS011;11378;51.642;7.668;2023-02-15T00:08:31;7.55;;;4.47;;
22421;SDS011;11378;51.642;7.668;2023-02-15T00:11:05;5.38;;;4.25;;
22421;SDS011;11378;51.642;7.668;2023-02-15T00:13:31;5.78;;;4.22;;
22421;SDS011;11378;51.642;7.668;2023-02-15T00:16:02;5.95;;;4.15;;
22421;SDS011;11378;51.642;7.668;2023-02-15T00:18:29;5.60;;;4.20;;
22421;SDS011;11378;51.642;7.668;2023-02-15T00:20:56;5.72;;;4.25;;
22421;SDS011;11378;51.642;7.668;2023-02-15T00:23:22;5.00;;;4.05;;
22421;SDS011;11378;51.642;7.668;2023-02-15T00:25:48;5.80;;;4.40;;
22421;SDS011;11378;51.642;7.668;2023-02-15T00:28:15;5.70;;;4.50;;
22421;SDS011;11378;51.642;7.668;2023-02-15T00:30:41;6.00;;;3.90;;
22421;SDS011;11378;51.642;7.668;2023-02-15T00:33:07;6.95;;;4.10;;
22421;SDS011;11378;51.642;7.668;2023-02-15T00:35:34;6.60;;;4.30;;
22421;SDS011;11378;51.642;7.668;2023-02-15T00:38:00;5.47;;;4.30;;
22421;SDS011;11378;51.642;7.668;2023-02-15T00:40:26;5.53;;;3.90;;
22421;SDS011;11378;51.642;7.668;2023-02-15T00:42:53;5.15;;;4.07;;
22421;SDS011;11378;51.642;7.668;2023-02-15T00:45:20;5.45;;;3.92;;
22421;SDS011;11378;51.642;7.668;2023-02-15T00:47:46;4.65;;;3.75;;
22421;SDS011;11378;51.642;7.668;2023-02-15T00:50:14;5.10;;;3.75;;
22421;SDS011;11378;51.642;7.668;2023-02-15T00:52:40;5.65;;;4.25;;
22421;SDS011;11378;51.642;7.668;2023-02-15T00:55:06;5.47;;;4.10;;
22421;SDS011;11378;51.642;7.668;2023-02-15T00:57:33;5.70;;;3.80;;
22421;SDS011;11378;51.642;7.668;2023-02-15T00:59:59;4.95;;;3.72;;
22421;SDS011;11378;51.642;7.668;2023-02-15T01:02:25;4.50;;;3.63;;
22421;SDS011;11378;51.642;7.668;2023-02-15T01:04:51;5.50;;;4.25;;
22421;SDS011;11378;51.642;7.668;2023-02-15T01:07:17;5.65;;;3.85;;
22421;SDS011;11378;51.642;7.668;2023-02-15T01:09:44;5.30;;;3.80;;
22421;SDS011;11378;51.642;7.668;2023-02-15T01:12:10;4.97;;;3.70;;
22421;SDS011;11378;51.642;7.668;2023-02-15T01:14:37;5.43;;;3.38;;
22421;SDS011;11378;51.642;7.668;2023-02-15T01:17:03;5.05;;;3.72;;
22421;SDS011;11378;51.642;7.668;2023-02-15T01:19:34;4.82;;;3.55;;
22421;SDS011;11378;51.642;7.668;2023-02-15T01:22:00;4.55;;;3.42;;
22421;SDS011;11378;51.642;7.668;2023-02-15T01:24:27;5.13;;;3.88;;
22421;SDS011;11378;51.642;7.668;2023-02-15T01:26:53;4.80;;;4.00;;
22421;SDS011;11378;51.642;7.668;2023-02-15T01:29:20;5.50;;;3.80;;
22421;SDS011;11378;51.642;7.668;2023-02-15T01:31:46;5.57;;;3.88;;
22421;SDS011;11378;51.642;7.668;2023-02-15T01:34:13;5.20;;;3.50;;
22421;SDS011;11378;51.642;7.668;2023-02-15T01:36:39;5.80;;;4.00;;
22421;SDS011;11378;51.642;7.668;2023-02-15T01:39:06;4.45;;;3.53;;
22421;SDS011;11378;51.642;7.668;2023-02-15T01:41:33;5.20;;;3.80;;
22421;SDS011;11378;51.642;7.668;2023-02-15T01:44:00;4.47;;;3.58;;
22421;SDS011;11378;51.642;7.668;2023-02-15T01:46:30;5.72;;;4.00;;
22421;SDS011;11378;51.642;7.668;2023-02-15T01:48:59;4.88;;;3.78;;
22421;SDS011;11378;51.642;7.668;2023-02-15T01:51:27;4.53;;;3.50;;
22421;SDS011;11378;51.642;7.668;2023-02-15T01:54:05;4.33;;;3.50;;
22421;SDS011;11378;51.642;7.668;2023-02-15T01:56:35;4.30;;;3.30;;
22421;SDS011;11378;51.642;7.668;2023-02-15T01:59:03;4.60;;;3.45;;
22421;SDS011;11378;51.642;7.668;2023-02-15T02:01:30;4.60;;;3.72;;
22421;SDS011;11378;51.642;7.668;2023-02-15T02:06:30;4.45;;;3.40;;
22421;SDS011;11378;51.642;7.668;2023-02-15T02:08:59;6.00;;;3.55;;
22421;SDS011;11378;51.642;7.668;2023-02-15T02:11:26;4.53;;;3.75;;
22421;SDS011;11378;51.642;7.668;2023-02-15T02:13:53;3.80;;;3.38;;
22421;SDS011;11378;51.642;7.668;2023-02-15T02:18:56;4.85;;;3.53;;
22421;SDS011;11378;51.642;7.668;2023-02-15T02:21:30;3.75;;;3.13;;
22421;SDS011;11378;51.642;7.668;2023-02-15T02:34:19;4.28;;;3.42;;
22421;SDS011;11378;51.642;7.668;2023-02-15T02:36:55;4.55;;;3.53;;
22421;SDS011;11378;51.642;7.668;2023-02-15T02:41:55;4.68;;;3.60;;
22421;SDS011;11378;51.642;7.668;2023-02-15T02:44:23;5.50;;;3.38;;
22421;SDS011;11378;51.642;7.668;2023-02-15T02:46:53;5.60;;;3.40;;
22421;SDS011;11378;51.642;7.668;2023-02-15T02:49:36;4.47;;;3.25;;
22421;SDS011;11378;51.642;7.668;2023-02-15T02:52:04;3.88;;;3.25;;
22421;SDS011;11378;51.642;7.668;2023-02-15T02:54:32;4.55;;;3.60;;
22421;SDS011;11378;51.642;7.668;2023-02-15T02:57:00;5.30;;;3.65;;
22421;SDS011;11378;51.642;7.668;2023-02-15T02:59:32;3.97;;;3.17;;
22421;SDS011;11378;51.642;7.668;2023-02-15T03:02:08;4.32;;;3.38;;
22421;SDS011;11378;51.642;7.668;2023-02-15T03:04:38;4.22;;;3.17;;
22421;SDS011;11378;51.642;7.668;2023-02-15T03:07:08;5.65;;;3.45;;
22421;SDS011;11378;51.642;7.668;2023-02-15T03:09:37;4.75;;;3.40;;
22421;SDS011;11378;51.642;7.668;2023-02-15T03:12:11;3.72;;;2.90;;
22421;SDS011;11378;51.642;7.668;2023-02-15T03:14:43;3.92;;;3.20;;
22421;SDS011;11378;51.642;7.668;2023-02-15T03:17:11;4.40;;;3.42;;
22421;SDS011;11378;51.642;7.668;2023-02-15T03:19:38;3.80;;;3.17;;
22421;SDS011;11378;51.642;7.668;2023-02-15T03:22:08;4.40;;;3.42;;
22421;SDS011;11378;51.642;7.668;2023-02-15T03:24:44;4.72;;;3.40;;
22421;SDS011;11378;51.642;7.668;2023-02-15T03:27:12;5.07;;;3.20;;
22421;SDS011;11378;51.642;7.668;2023-02-15T03:29:43;4.38;;;3.20;;
22421;SDS011;11378;51.642;7.668;2023-02-15T03:32:11;3.85;;;3.25;;
22421;SDS011;11378;51.642;7.668;2023-02-15T03:34:41;4.70;;;3.45;;
22421;SDS011;11378;51.642;7.668;2023-02-15T03:37:16;4.50;;;3.40;;
22421;SDS011;11378;51.642;7.668;2023-02-15T03:39:51;4.00;;;3.40;;
22421;SDS011;11378;51.642;7.668;2023-02-15T03:44:50;3.40;;;3.00;;
22421;SDS011;11378;51.642;7.668;2023-02-15T03:47:23;3.90;;;3.40;;
22421;SDS011;11378;51.642;7.668;2023-02-15T03:49:53;4.68;;;3.53;;
22421;SDS011;11378;51.642;7.668;2023-02-15T03:52:21;4.30;;;3.40;;
22421;SDS011;11378;51.642;7.668;2023-02-15T03:54:49;3.65;;;2.95;;
22421;SDS011;11378;51.642;7.668;2023-02-15T03:57:18;4.30;;;3.50;;
22421;SDS011;11378;51.642;7.668;2023-02-15T04:00:11;4.00;;;3.13;;
22421;SDS011;11378;51.642;7.668;2023-02-15T04:05:43;4.72;;;3.22;;
22421;SDS011;11378;51.642;7.668;2023-02-15T04:08:09;4.65;;;3.05;;
22421;SDS011;11378;51.642;7.668;2023-02-15T04:10:36;3.50;;;2.88;;
22421;SDS011;11378;51.642;7.668;2023-02-15T04:13:29;4.43;;;3.40;;
22421;SDS011;11378;51.642;7.668;2023-02-15T04:15:56;3.85;;;3.33;;
22421;SDS011;11378;51.642;7.668;2023-02-15T04:18:32;4.63;;;3.30;;
22421;SDS011;11378;51.642;7.668;2023-02-15T04:21:17;4.40;;;3.42;;
22421;SDS011;11378;51.642;7.668;2023-02-15T04:24:02;4.85;;;3.90;;
22421;SDS011;11378;51.642;7.668;2023-02-15T04:26:47;4.43;;;3.50;;
22421;SDS011;11378;51.642;7.668;2023-02-15T04:29:14;4.50;;;3.45;;
22421;SDS011;11378;51.642;7.668;2023-02-15T04:31:41;5.15;;;3.88;;
22421;SDS011;11378;51.642;7.668;2023-02-15T04:34:08;4.22;;;3.50;;
22421;SDS011;11378;51.642;7.668;2023-02-15T04:36:35;4.63;;;3.45;;
22421;SDS011;11378;51.642;7.668;2023-02-15T04:39:02;3.42;;;3.05;;
22421;SDS011;11378;51.642;7.668;2023-02-15T04:41:28;3.47;;;2.95;;
22421;SDS011;11378;51.642;7.668;2023-02-15T04:43:55;4.53;;;3.22;;
22421;SDS011;11378;51.642;7.668;2023-02-15T04:46:22;4.00;;;3.30;;
22421;SDS011;11378;51.642;7.668;2023-02-15T04:48:48;5.85;;;3.40;;
22421;SDS011;11378;51.642;7.668;2023-02-15T04:51:15;4.72;;;3.53;;
22421;SDS011;11378;51.642;7.668;2023-02-15T04:53:41;3.80;;;3.13;;
22421;SDS011;11378;51.642;7.668;2023-02-15T04:56:07;4.70;;;3.53;;
22421;SDS011;11378;51.642;7.668;2023-02-15T04:58:34;4.97;;;3.70;;
22421;SDS011;11378;51.642;7.668;2023-02-15T05:01:02;4.90;;;3.70;;
22421;SDS011;11378;51.642;7.668;2023-02-15T05:03:28;4.80;;;3.60;;
22421;SDS011;11378;51.642;7.668;2023-02-15T05:05:54;5.05;;;3.40;;
22421;SDS011;11378;51.642;7.668;2023-02-15T05:08:20;4.32;;;3.20;;
22421;SDS011;11378;51.642;7.668;2023-02-15T05:10:49;4.38;;;3.30;;
22421;SDS011;11378;51.642;7.668;2023-02-15T05:13:16;3.22;;;2.42;;
22421;SDS011;11378;51.642;7.668;2023-02-15T05:15:46;5.63;;;3.80;;
22421;SDS011;11378;51.642;7.668;2023-02-15T05:18:12;4.18;;;3.38;;
22421;SDS011;11378;51.642;7.668;2023-02-15T05:20:39;4.53;;;3.35;;
22421;SDS011;11378;51.642;7.668;2023-02-15T05:23:05;3.90;;;3.25;;
22421;SDS011;11378;51.642;7.668;2023-02-15T05:25:31;6.07;;;4.32;;
22421;SDS011;11378;51.642;7.668;2023-02-15T05:28:16;4.97;;;3.78;;
22421;SDS011;11378;51.642;7.668;2023-02-15T05:31:05;6.00;;;3.60;;
22421;SDS011;11378;51.642;7.668;2023-02-15T05:33:32;5.47;;;3.70;;
22421;SDS011;11378;51.642;7.668;2023-02-15T05:35:58;4.60;;;3.50;;
22421;SDS011;11378;51.642;7.668;2023-02-15T05:38:24;5.65;;;3.78;;
22421;SDS011;11378;51.642;7.668;2023-02-15T05:40:51;4.78;;;3.83;;
22421;SDS011;11378;51.642;7.668;2023-02-15T05:43:18;4.63;;;3.45;;
22421;SDS011;11378;51.642;7.668;2023-02-15T05:45:45;6.50;;;3.95;;
22421;SDS011;11378;51.642;7.668;2023-02-15T05:48:11;4.93;;;3.75;;
22421;SDS011;11378;51.642;7.668;2023-02-15T05:50:37;4.68;;;3.85;;
22421;SDS011;11378;51.642;7.668;2023-02-15T05:53:03;5.43;;;4.00;;
22421;SDS011;11378;51.642;7.668;2023-02-15T05:55:30;5.60;;;3.60;;
22421;SDS011;11378;51.642;7.668;2023-02-15T05:57:56;4.88;;;3.47;;
22421;SDS011;11378;51.642;7.668;2023-02-15T06:00:22;4.53;;;3.58;;
22421;SDS011;11378;51.642;7.668;2023-02-15T06:02:48;5.00;;;3.75;;
22421;SDS011;11378;51.642;7.668;2023-02-15T06:05:14;4.93;;;3.53;;
22421;SDS011;11378;51.642;7.668;2023-02-15T06:07:43;4.50;;;3.25;;
22421;SDS011;11378;51.642;7.668;2023-02-15T06:10:10;3.45;;;3.10;;
22421;SDS011;11378;51.642;7.668;2023-02-15T06:12:36;4.22;;;3.53;;
22421;SDS011;11378;51.642;7.668;2023-02-15T06:15:03;5.90;;;3.70;;
22421;SDS011;11378;51.642;7.668;2023-02-15T06:17:29;5.50;;;3.50;;
22421;SDS011;11378;51.642;7.668;2023-02-15T06:19:56;4.43;;;3.28;;
22421;SDS011;11378;51.642;7.668;2023-02-15T06:22:22;4.63;;;3.55;;
22421;SDS011;11378;51.642;7.668;2023-02-15T06:24:48;4.20;;;3.13;;
22421;SDS011;11378;51.642;7.668;2023-02-15T06:27:15;5.45;;;3.90;;
22421;SDS011;11378;51.642;7.668;2023-02-15T06:29:41;5.90;;;3.38;;
22421;SDS011;11378;51.642;7.668;2023-02-15T06:32:07;4.30;;;3.53;;
22421;SDS011;11378;51.642;7.668;2023-02-15T06:34:33;5.82;;;3.30;;
22421;SDS011;11378;51.642;7.668;2023-02-15T06:37:00;3.50;;;3.10;;
22421;SDS011;11378;51.642;7.668;2023-02-15T06:39:26;3.33;;;3.03;;
22421;SDS011;11378;51.642;7.668;2023-02-15T06:41:53;4.35;;;3.30;;
22421;SDS011;11378;51.642;7.668;2023-02-15T06:44:19;4.32;;;3.30;;
22421;SDS011;11378;51.642;7.668;2023-02-15T06:46:46;4.03;;;3.20;;
22421;SDS011;11378;51.642;7.668;2023-02-15T06:49:12;3.55;;;3.00;;
22421;SDS011;11378;51.642;7.668;2023-02-15T06:51:38;5.32;;;3.75;;
22421;SDS011;11378;51.642;7.668;2023-02-15T06:54:04;5.43;;;3.63;;
22421;SDS011;11378;51.642;7.668;2023-02-15T06:56:31;4.72;;;3.70;;
22421;SDS011;11378;51.642;7.668;2023-02-15T06:58:57;4.13;;;3.22;;
22421;SDS011;11378;51.642;7.668;2023-02-15T07:01:23;4.00;;;3.30;;
22421;SDS011;11378;51.642;7.668;2023-02-15T07:03:49;4.28;;;3.20;;
22421;SDS011;11378;51.642;7.668;2023-02-15T07:06:16;4.07;;;3.00;;
22421;SDS011;11378;51.642;7.668;2023-02-15T07:08:42;3.72;;;3.10;;
22421;SDS011;11378;51.642;7.668;2023-02-15T07:11:08;4.07;;;3.22;;
22421;SDS011;11378;51.642;7.668;2023-02-15T07:13:53;4.05;;;3.10;;
22421;SDS011;11378;51.642;7.668;2023-02-15T07:16:20;4.25;;;3.40;;
22421;SDS011;11378;51.642;7.668;2023-02-15T07:18:46;4.55;;;3.30;;
22421;SDS011;11378;51.642;7.668;2023-02-15T07:21:13;5.35;;;3.30;;
22421;SDS011;11378;51.642;7.668;2023-02-15T07:23:39;5.00;;;3.50;;
22421;SDS011;11378;51.642;7.668;2023-02-15T07:26:06;4.45;;;3.53;;
22421;SDS011;11378;51.642;7.668;2023-02-15T07:28:33;4.30;;;3.47;;
22421;SDS011;11378;51.642;7.668;2023-02-15T07:31:03;4.78;;;3.78;;
22421;SDS011;11378;51.642;7.668;2023-02-15T07:33:30;4.63;;;3.10;;
22421;SDS011;11378;51.642;7.668;2023-02-15T07:35:57;3.92;;;3.20;;
22421;SDS011;11378;51.642;7.668;2023-02-15T07:38:24;4.97;;;3.65;;
22421;SDS011;11378;51.642;7.668;2023-02-15T07:40:50;4.80;;;3.17;;
22421;SDS011;11378;51.642;7.668;2023-02-15T07:43:17;4.75;;;2.92;;
22421;SDS011;11378;51.642;7.668;2023-02-15T07:45:43;4.78;;;3.47;;
22421;SDS011;11378;51.642;7.668;2023-02-15T07:48:09;4.05;;;3.28;;
22421;SDS011;11378;51.642;7.668;2023-02-15T07:50:36;3.78;;;3.03;;
22421;SDS011;11378;51.642;7.668;2023-02-15T07:53:03;3.47;;;2.95;;
22421;SDS011;11378;51.642;7.668;2023-02-15T07:55:30;3.67;;;3.03;;
22421;SDS011;11378;51.642;7.668;2023-02-15T07:57:56;4.28;;;3.20;;
22421;SDS011;11378;51.642;7.668;2023-02-15T08:00:23;4.22;;;3.08;;
22421;SDS011;11378;51.642;7.668;2023-02-15T08:02:53;4.22;;;3.17;;
22421;SDS011;11378;51.642;7.668;2023-02-15T08:05:39;4.18;;;3.28;;
22421;SDS011;11378;51.642;7.668;2023-02-15T08:08:06;5.10;;;3.17;;
22421;SDS011;11378;51.642;7.668;2023-02-15T08:10:33;4.35;;;3.47;;
22421;SDS011;11378;51.642;7.668;2023-02-15T08:13:18;3.80;;;3.30;;
22421;SDS011;11378;51.642;7.668;2023-02-15T08:15:49;6.25;;;3.05;;
22421;SDS011;11378;51.642;7.668;2023-02-15T08:18:15;4.38;;;3.05;;
22421;SDS011;11378;51.642;7.668;2023-02-15T08:20:42;4.18;;;3.28;;
22421;SDS011;11378;51.642;7.668;2023-02-15T08:23:08;4.45;;;3.03;;
22421;SDS011;11378;51.642;7.668;2023-02-15T08:25:34;3.65;;;3.03;;
22421;SDS011;11378;51.642;7.668;2023-02-15T08:28:01;4.00;;;3.10;;
22421;SDS011;11378;51.642;7.668;2023-02-15T08:30:27;4.95;;;3.58;;
22421;SDS011;11378;51.642;7.668;2023-02-15T08:32:54;4.70;;;3.40;;
22421;SDS011;11378;51.642;7.668;2023-02-15T08:35:20;4.68;;;3.17;;
22421;SDS011;11378;51.642;7.668;2023-02-15T08:37:46;4.82;;;3.40;;
22421;SDS011;11378;51.642;7.668;2023-02-15T08:40:13;5.18;;;3.50;;
22421;SDS011;11378;51.642;7.668;2023-02-15T08:42:39;3.50;;;2.85;;
22421;SDS011;11378;51.642;7.668;2023-02-15T08:45:06;4.25;;;3.30;;
22421;SDS011;11378;51.642;7.668;2023-02-15T08:47:32;3.83;;;3.08;;
22421;SDS011;11378;51.642;7.668;2023-02-15T08:49:59;4.10;;;3.05;;
22421;SDS011;11378;51.642;7.668;2023-02-15T08:54:51;3.53;;;2.85;;
22421;SDS011;11378;51.642;7.668;2023-02-15T08:57:18;3.70;;;3.00;;
22421;SDS011;11378;51.642;7.668;2023-02-15T08:59:44;8.93;;;3.70;;
22421;SDS011;11378;51.642;7.668;2023-02-15T09:02:11;4.15;;;3.17;;
22421;SDS011;11378;51.642;7.668;2023-02-15T09:04:37;3.75;;;3.05;;
22421;SDS011;11378;51.642;7.668;2023-02-15T09:07:04;4.25;;;3.22;;
22421;SDS011;11378;51.642;7.668;2023-02-15T09:09:30;4.20;;;3.20;;
22421;SDS011;11378;51.642;7.668;2023-02-15T09:11:57;4.75;;;3.22;;
22421;SDS011;11378;51.642;7.668;2023-02-15T09:14:23;3.88;;;3.15;;
22421;SDS011;11378;51.642;7.668;2023-02-15T09:16:51;3.85;;;3.00;;
22421;SDS011;11378;51.642;7.668;2023-02-15T09:19:19;4.93;;;3.42;;
22421;SDS011;11378;51.642;7.668;2023-02-15T09:21:45;4.30;;;3.03;;
22421;SDS011;11378;51.642;7.668;2023-02-15T09:24:12;3.75;;;3.20;;
22421;SDS011;11378;51.642;7.668;2023-02-15T09:26:40;3.97;;;3.13;;
22421;SDS011;11378;51.642;7.668;2023-02-15T09:29:07;5.00;;;3.40;;
22421;SDS011;11378;51.642;7.668;2023-02-15T09:31:38;3.45;;;3.10;;
22421;SDS011;11378;51.642;7.668;2023-02-15T09:34:06;4.50;;;3.03;;
22421;SDS011;11378;51.642;7.668;2023-02-15T09:36:34;4.63;;;3.65;;
22421;SDS011;11378;51.642;7.668;2023-02-15T09:49:13;3.97;;;3.17;;
22421;SDS011;11378;51.642;7.668;2023-02-15T09:51:45;4.25;;;2.90;;
22421;SDS011;11378;51.642;7.668;2023-02-15T09:54:23;4.15;;;2.95;;
22421;SDS011;11378;51.642;7.668;2023-02-15T09:56:55;4.10;;;3.42;;
22421;SDS011;11378;51.642;7.668;2023-02-15T10:22:50;2.97;;;2.50;;
22421;SDS011;11378;51.642;7.668;2023-02-15T10:28:06;3.75;;;2.90;;
22421;SDS011;11378;51.642;7.668;2023-02-15T10:30:45;3.58;;;3.05;;
22421;SDS011;11378;51.642;7.668;2023-02-15T10:41:00;3.30;;;2.70;;
22421;SDS011;11378;51.642;7.668;2023-02-15T10:43:39;3.83;;;3.13;;
22421;SDS011;11378;51.642;7.668;2023-02-15T10:54:09;2.67;;;2.10;;
22421;SDS011;11378;51.642;7.668;2023-02-15T10:56:43;3.53;;;2.50;;
22421;SDS011;11378;51.642;7.668;2023-02-15T10:59:19;4.28;;;2.63;;
22421;SDS011;11378;51.642;7.668;2023-02-15T11:01:55;3.08;;;2.53;;
22421;SDS011;11378;51.642;7.668;2023-02-15T11:06:54;3.15;;;2.60;;
22421;SDS011;11378;51.642;7.668;2023-02-15T11:09:22;3.42;;;2.30;;
22421;SDS011;11378;51.642;7.668;2023-02-15T11:11:51;4.18;;;2.38;;
22421;SDS011;11378;51.642;7.668;2023-02-15T11:14:31;2.67;;;2.30;;
22421;SDS011;11378;51.642;7.668;2023-02-15T11:17:02;3.75;;;2.88;;
22421;SDS011;11378;51.642;7.668;2023-02-15T11:19:31;3.50;;;2.37;;
22421;SDS011;11378;51.642;7.668;2023-02-15T11:21:59;2.22;;;2.03;;
22421;SDS011;11378;51.642;7.668;2023-02-15T11:24:26;3.00;;;2.30;;
22421;SDS011;11378;51.642;7.668;2023-02-15T11:31:55;2.85;;;2.17;;
22421;SDS011;11378;51.642;7.668;2023-02-15T11:34:27;3.13;;;2.83;;
22421;SDS011;11378;51.642;7.668;2023-02-15T11:36:55;2.97;;;2.50;;
22421;SDS011;11378;51.642;7.668;2023-02-15T11:39:24;3.27;;;2.67;;
22421;SDS011;11378;51.642;7.668;2023-02-15T11:41:55;2.30;;;2.08;;
22421;SDS011;11378;51.642;7.668;2023-02-15T11:44:36;2.22;;;1.98;;
22421;SDS011;11378;51.642;7.668;2023-02-15T11:47:07;2.60;;;2.20;;
22421;SDS011;11378;51.642;7.668;2023-02-15T11:49:34;3.13;;;2.30;;
22421;SDS011;11378;51.642;7.668;2023-02-15T11:52:02;2.80;;;2.08;;
22421;SDS011;11378;51.642;7.668;2023-02-15T11:54:30;2.70;;;2.00;;
22421;SDS011;11378;51.642;7.668;2023-02-15T11:56:59;2.33;;;2.13;;
22421;SDS011;11378;51.642;7.668;2023-02-15T11:59:29;2.83;;;2.40;;
22421;SDS011;11378;51.642;7.668;2023-02-15T12:01:57;3.33;;;2.72;;
22421;SDS011;11378;51.642;7.668;2023-02-15T12:04:30;2.75;;;2.08;;
22421;SDS011;11378;51.642;7.668;2023-02-15T12:07:03;2.30;;;2.10;;
22421;SDS011;11378;51.642;7.668;2023-02-15T12:09:37;2.92;;;2.38;;
22421;SDS011;11378;51.642;7.668;2023-02-15T12:12:20;2.60;;;2.35;;
22421;SDS011;11378;51.642;7.668;2023-02-15T12:14:52;2.92;;;2.33;;
22421;SDS011;11378;51.642;7.668;2023-02-15T12:17:26;2.40;;;2.08;;
22421;SDS011;11378;51.642;7.668;2023-02-15T12:19:57;2.77;;;1.90;;
22421;SDS011;11378;51.642;7.668;2023-02-15T12:22:30;2.88;;;2.17;;
22421;SDS011;11378;51.642;7.668;2023-02-15T12:25:01;2.35;;;2.10;;
22421;SDS011;11378;51.642;7.668;2023-02-15T12:27:34;2.88;;;1.95;;
22421;SDS011;11378;51.642;7.668;2023-02-15T12:35:32;2.42;;;2.15;;
22421;SDS011;11378;51.642;7.668;2023-02-15T12:38:42;3.47;;;2.40;;
22421;SDS011;11378;51.642;7.668;2023-02-15T12:41:03;2.80;;;2.17;;
22421;SDS011;11378;51.642;7.668;2023-02-15T12:43:31;1.95;;;1.73;;
22421;SDS011;11378;51.642;7.668;2023-02-15T12:48:43;2.17;;;1.90;;
22421;SDS011;11378;51.642;7.668;2023-02-15T12:51:12;2.65;;;2.10;;
22421;SDS011;11378;51.642;7.668;2023-02-15T12:56:06;2.50;;;1.92;;
22421;SDS011;11378;51.642;7.668;2023-02-15T12:58:37;2.08;;;1.90;;
22421;SDS011;11378;51.642;7.668;2023-02-15T13:01:09;3.00;;;2.53;;
22421;SDS011;11378;51.642;7.668;2023-02-15T13:03:37;1.90;;;1.75;;
22421;SDS011;11378;51.642;7.668;2023-02-15T13:06:05;2.15;;;1.80;;
22421;SDS011;11378;51.642;7.668;2023-02-15T13:08:49;3.03;;;2.38;;
22421;SDS011;11378;51.642;7.668;2023-02-15T13:11:26;2.22;;;1.70;;
22421;SDS011;11378;51.642;7.668;2023-02-15T13:13:54;2.42;;;2.05;;
22421;SDS011;11378;51.642;7.668;2023-02-15T13:16:41;2.00;;;1.80;;
22421;SDS011;11378;51.642;7.668;2023-02-15T13:19:10;2.92;;;2.00;;
22421;SDS011;11378;51.642;7.668;2023-02-15T13:21:39;1.88;;;1.65;;
22421;SDS011;11378;51.642;7.668;2023-02-15T13:24:10;2.60;;;2.03;;
22421;SDS011;11378;51.642;7.668;2023-02-15T13:26:41;2.35;;;1.88;;
22421;SDS011;11378;51.642;7.668;2023-02-15T13:29:17;2.67;;;2.00;;
22421;SDS011;11378;51.642;7.668;2023-02-15T13:31:44;2.33;;;1.80;;
22421;SDS011;11378;51.642;7.668;2023-02-15T13:42:13;2.00;;;1.80;;
22421;SDS011;11378;51.642;7.668;2023-02-15T13:47:41;2.78;;;2.38;;
22421;SDS011;11378;51.642;7.668;2023-02-15T13:52:39;4.53;;;2.75;;
22421;SDS011;11378;51.642;7.668;2023-02-15T14:08:11;3.38;;;2.28;;
22421;SDS011;11378;51.642;7.668;2023-02-15T14:10:43;3.17;;;2.47;;
22421;SDS011;11378;51.642;7.668;2023-02-15T14:21:00;3.53;;;1.95;;
22421;SDS011;11378;51.642;7.668;2023-02-15T14:28:34;3.05;;;1.95;;
22421;SDS011;11378;51.642;7.668;2023-02-15T14:31:03;2.90;;;2.22;;
22421;SDS011;11378;51.642;7.668;2023-02-15T14:33:33;3.17;;;2.22;;
22421;SDS011;11378;51.642;7.668;2023-02-15T14:36:00;2.15;;;1.90;;
22421;SDS011;11378;51.642;7.668;2023-02-15T14:41:01;2.65;;;1.95;;
22421;SDS011;11378;51.642;7.668;2023-02-15T14:48:47;2.55;;;2.00;;
22421;SDS011;11378;51.642;7.668;2023-02-15T14:53:59;2.72;;;2.03;;
22421;SDS011;11378;51.642;7.668;2023-02-15T14:56:25;2.33;;;2.00;;
22421;SDS011;11378;51.642;7.668;2023-02-15T15:04:21;1.90;;;1.70;;
22421;SDS011;11378;51.642;7.668;2023-02-15T15:06:57;2.05;;;1.67;;
22421;SDS011;11378;51.642;7.668;2023-02-15T15:09:25;2.60;;;1.90;;
22421;SDS011;11378;51.642;7.668;2023-02-15T15:11:53;2.28;;;1.92;;
22421;SDS011;11378;51.642;7.668;2023-02-15T15:16:58;2.05;;;1.48;;
22421;SDS011;11378;51.642;7.668;2023-02-15T15:22:22;2.28;;;1.92;;
22421;SDS011;11378;51.642;7.668;2023-02-15T15:24:53;2.53;;;2.00;;
22421;SDS011;11378;51.642;7.668;2023-02-15T15:32:42;2.63;;;1.80;;
22421;SDS011;11378;51.642;7.668;2023-02-15T15:45:46;1.80;;;1.60;;
22421;SDS011;11378;51.642;7.668;2023-02-15T15:50:44;2.33;;;1.85;;
22421;SDS011;11378;51.642;7.668;2023-02-15T15:53:18;1.98;;;1.70;;
22421;SDS011;11378;51.642;7.668;2023-02-15T15:55:46;1.88;;;1.67;;
22421;SDS011;11378;51.642;7.668;2023-02-15T15:58:13;1.77;;;1.67;;
22421;SDS011;11378;51.642;7.668;2023-02-15T16:00:43;2.83;;;1.98;;
22421;SDS011;11378;51.642;7.668;2023-02-15T16:03:17;1.73;;;1.63;;
22421;SDS011;11378;51.642;7.668;2023-02-15T16:05:46;2.05;;;1.65;;
22421;SDS011;11378;51.642;7.668;2023-02-15T16:08:28;2.22;;;1.83;;
22421;SDS011;11378;51.642;7.668;2023-02-15T16:10:54;2.78;;;1.70;;
22421;SDS011;11378;51.642;7.668;2023-02-15T16:13:21;2.13;;;1.73;;
22421;SDS011;11378;51.642;7.668;2023-02-15T16:15:50;2.20;;;1.85;;
22421;SDS011;11378;51.642;7.668;2023-02-15T16:18:18;2.35;;;1.80;;
22421;SDS011;11378;51.642;7.668;2023-02-15T16:20:54;1.95;;;1.70;;
22421;SDS011;11378;51.642;7.668;2023-02-15T16:23:30;2.28;;;1.80;;
22421;SDS011;11378;51.642;7.668;2023-02-15T16:28:49;12.48;;;4.85;;
22421;SDS011;11378;51.642;7.668;2023-02-15T16:31:16;9.45;;;4.47;;
22421;SDS011;11378;51.642;7.668;2023-02-15T16:33:43;8.18;;;4.70;;
22421;SDS011;11378;51.642;7.668;2023-02-15T16:36:11;8.90;;;4.07;;
22421;SDS011;11378;51.642;7.668;2023-02-15T16:41:11;7.70;;;4.00;;
22421;SDS011;11378;51.642;7.668;2023-02-15T16:43:38;6.97;;;4.20;;
22421;SDS011;11378;51.642;7.668;2023-02-15T16:46:08;7.18;;;3.95;;
22421;SDS011;11378;51.642;7.668;2023-02-15T16:48:39;17.83;;;7.70;;
22421;SDS011;11378;51.642;7.668;2023-02-15T16:51:06;8.23;;;4.28;;
22421;SDS011;11378;51.642;7.668;2023-02-15T16:53:32;10.73;;;4.70;;
22421;SDS011;11378;51.642;7.668;2023-02-15T16:55:59;11.95;;;4.78;;
22421;SDS011;11378;51.642;7.668;2023-02-15T16:58:31;8.93;;;4.75;;
22421;SDS011;11378;51.642;7.668;2023-02-15T17:00:59;11.30;;;4.75;;
22421;SDS011;11378;51.642;7.668;2023-02-15T17:03:27;13.27;;;4.40;;
22421;SDS011;11378;51.642;7.668;2023-02-15T17:06:00;6.47;;;4.03;;
22421;SDS011;11378;51.642;7.668;2023-02-15T17:08:31;14.77;;;4.53;;
22421;SDS011;11378;51.642;7.668;2023-02-15T17:13:25;6.82;;;3.80;;
22421;SDS011;11378;51.642;7.668;2023-02-15T17:18:27;8.98;;;4.05;;
22421;SDS011;11378;51.642;7.668;2023-02-15T17:20:55;7.35;;;3.88;;
22421;SDS011;11378;51.642;7.668;2023-02-15T17:25:52;7.25;;;3.72;;
22421;SDS011;11378;51.642;7.668;2023-02-15T17:28:22;7.18;;;3.75;;
22421;SDS011;11378;51.642;7.668;2023-02-15T17:30:50;5.95;;;3.63;;
22421;SDS011;11378;51.642;7.668;2023-02-15T17:33:35;7.32;;;3.97;;
22421;SDS011;11378;51.642;7.668;2023-02-15T17:36:11;8.07;;;3.72;;
22421;SDS011;11378;51.642;7.668;2023-02-15T17:38:40;6.60;;;3.47;;
22421;SDS011;11378;51.642;7.668;2023-02-15T17:41:16;5.07;;;3.42;;
22421;SDS011;11378;51.642;7.668;2023-02-15T17:43:42;7.07;;;3.80;;
22421;SDS011;11378;51.642;7.668;2023-02-15T17:46:08;10.15;;;5.50;;
22421;SDS011;11378;51.642;7.668;2023-02-15T17:48:35;10.43;;;5.88;;
22421;SDS011;11378;51.642;7.668;2023-02-15T17:51:02;9.27;;;5.75;;
22421;SDS011;11378;51.642;7.668;2023-02-15T17:53:29;13.20;;;6.25;;
22421;SDS011;11378;51.642;7.668;2023-02-15T17:55:55;10.02;;;6.55;;
22421;SDS011;11378;51.642;7.668;2023-02-15T17:58:21;8.73;;;5.88;;
22421;SDS011;11378;51.642;7.668;2023-02-15T18:00:52;9.43;;;6.03;;
22421;SDS011;11378;51.642;7.668;2023-02-15T18:03:39;9.55;;;5.97;;
22421;SDS011;11378;51.642;7.668;2023-02-15T18:06:25;7.32;;;3.95;;
22421;SDS011;11378;51.642;7.668;2023-02-15T18:09:10;8.05;;;5.05;;